PWSweather.com
Personal Weather Stations
Station Observations

AwhituWaiuku, CA 268400

Lat: -37.058, Lon: -174.6346

Elevation: 250

Station Type: Personal

http://www.weather-display.com/windy/gb/grahamsbeach.htm

High Low Average
Temperature 60.9°F16.1°C 51.4°F10.8°C 55.3°F12.9°C
Dew Point 56.5°F13.6°C 49.5°F9.7°C 52.4°F11.3°C
Winds 33.4 mph 53.8 kmh 2.3 mph 3.7 kmh 21.0 mph W33.8 kmh W
Wind Gusts 47.2 mph76.0 kmh 3.5 mph5.6 kmh 26.0 mph41.8 kmh
Humidity 95% 81% 90%
Pressure 29.73 in1006.8 mb 29.50 in999.0 mb -
Precipitation 0.79 in20.1 mm - -
Hour Temp Dew Point Humidity Winds Wind Gusts Pressure Precip Precip Rate Daily Precip Total
12:30 AM 54.2°F12.3°C 51.9°F11.1°C 92% 19.6 mph WNW31.5 kmh WNW 21.9 mph35.2 kmh 29.73 in1006.8 mb - 0.01 in0.3 mm 0.01 in0.3 mm
01:00 AM 54.8°F12.7°C 52.2°F11.2°C 91% 19.6 mph W31.5 kmh W 26.5 mph42.6 kmh 29.72 in1006.4 mb - 0.00 in0.0 mm 0.01 in0.3 mm
01:30 AM 55.7°F13.2°C 52.8°F11.6°C 90% 20.7 mph WNW33.3 kmh WNW 31.1 mph50.1 kmh 29.72 in1006.4 mb - 0.00 in0.0 mm 0.01 in0.3 mm
02:00 AM 56.4°F13.6°C 53.5°F11.9°C 90% 27.6 mph W44.4 kmh W 33.4 mph53.8 kmh 29.70 in1005.8 mb - 0.00 in0.0 mm 0.01 in0.3 mm
02:30 AM 56.1°F13.4°C 53.2°F11.8°C 90% 28.8 mph W46.3 kmh W 34.5 mph55.5 kmh 29.71 in1006.1 mb - 0.06 in1.5 mm 0.06 in1.5 mm
03:00 AM 55.0°F12.8°C 52.7°F11.5°C 92% 23.0 mph W37.0 kmh W 26.5 mph42.6 kmh 29.70 in1005.8 mb - 0.04 in1.0 mm 0.09 in2.3 mm
03:30 AM 56.3°F13.5°C 53.4°F11.9°C 90% 24.2 mph W38.9 kmh W 26.5 mph42.6 kmh 29.69 in1005.4 mb - 0.00 in0.0 mm 0.09 in2.3 mm
04:00 AM 55.4°F13.0°C 52.8°F11.6°C 91% 25.3 mph WNW40.7 kmh WNW 32.2 mph51.8 kmh 29.68 in1005.1 mb - 0.02 in0.5 mm 0.12 in3.0 mm
04:30 AM 55.8°F13.2°C 53.8°F12.1°C 93% 23.0 mph W37.0 kmh W 27.6 mph44.4 kmh 29.68 in1005.1 mb - 0.03 in0.8 mm 0.15 in3.8 mm
05:00 AM 56.3°F13.5°C 53.4°F11.9°C 90% 31.1 mph WNW50.1 kmh WNW 38.0 mph61.2 kmh 29.66 in1004.4 mb - 0.00 in0.0 mm 0.15 in3.8 mm
05:30 AM 56.8°F13.8°C 53.3°F11.8°C 88% 31.1 mph W50.1 kmh W 36.8 mph59.2 kmh 29.66 in1004.4 mb - 0.00 in0.0 mm 0.15 in3.8 mm
06:00 AM 56.8°F13.8°C 53.6°F12.0°C 89% 26.5 mph W42.6 kmh W 28.8 mph46.3 kmh 29.67 in1004.7 mb - 0.01 in0.3 mm 0.16 in4.1 mm
06:30 AM 53.7°F12.1°C 49.9°F9.9°C 87% 24.2 mph WNW38.9 kmh WNW 26.5 mph42.6 kmh 29.68 in1005.1 mb - 0.03 in0.8 mm 0.19 in4.8 mm
07:00 AM 53.8°F12.1°C 50.9°F10.5°C 90% 24.2 mph W38.9 kmh W 27.6 mph44.4 kmh 29.68 in1005.1 mb - 0.00 in0.0 mm 0.19 in4.8 mm
07:30 AM 55.4°F13.0°C 52.8°F11.6°C 91% 23.0 mph W37.0 kmh W 29.9 mph48.1 kmh 29.69 in1005.4 mb - 0.00 in0.0 mm 0.19 in4.8 mm
08:00 AM 55.1°F12.8°C 52.8°F11.6°C 92% 16.1 mph WNW25.9 kmh WNW 20.7 mph33.3 kmh 29.68 in1005.1 mb - 0.02 in0.5 mm 0.21 in5.3 mm
08:30 AM 55.4°F13.0°C 53.1°F11.7°C 92% 16.1 mph W25.9 kmh W 17.3 mph27.8 kmh 29.68 in1005.1 mb - 0.02 in0.5 mm 0.22 in5.6 mm
09:00 AM 56.3°F13.5°C 54.3°F12.4°C 93% 21.9 mph WNW35.2 kmh WNW 26.5 mph42.6 kmh 29.67 in1004.7 mb - 0.08 in2.0 mm 0.30 in7.6 mm
09:30 AM 57.5°F14.2°C 54.5°F12.5°C 90% 26.5 mph WNW42.6 kmh WNW 29.9 mph48.1 kmh 29.66 in1004.4 mb - 0.00 in0.0 mm 0.30 in7.6 mm
10:00 AM 58.2°F14.6°C 54.7°F12.6°C 88% 31.1 mph WNW50.1 kmh WNW 39.1 mph62.9 kmh 29.66 in1004.4 mb - 0.00 in0.0 mm 0.30 in7.6 mm
10:30 AM 59.6°F15.3°C 56.0°F13.3°C 88% 26.5 mph WNW42.6 kmh WNW 34.5 mph55.5 kmh 29.65 in1004.1 mb - 0.00 in0.0 mm 0.30 in7.6 mm
11:00 AM 60.4°F15.8°C 56.5°F13.6°C 87% 31.1 mph NW50.1 kmh NW 42.6 mph68.6 kmh 29.64 in1003.7 mb - 0.00 in0.0 mm 0.30 in7.6 mm
11:30 AM 60.8°F16.0°C 55.3°F12.9°C 82% 33.4 mph WNW53.8 kmh WNW 41.4 mph66.6 kmh 29.63 in1003.4 mb - 0.00 in0.0 mm 0.30 in7.6 mm
12:00 PM 60.9°F16.1°C 55.4°F13.0°C 82% 32.2 mph WNW51.8 kmh WNW 47.2 mph76.0 kmh 29.62 in1003.0 mb - 0.00 in0.0 mm 0.30 in7.6 mm
12:30 PM 58.8°F14.9°C 54.6°F12.6°C 86% 26.5 mph WNW42.6 kmh WNW 29.9 mph48.1 kmh 29.61 in1002.7 mb - 0.00 in0.0 mm 0.30 in7.6 mm
01:00 PM 56.8°F13.8°C 53.0°F11.7°C 87% 29.9 mph NW48.1 kmh NW 39.1 mph62.9 kmh 29.59 in1002.0 mb - 0.01 in0.3 mm 0.31 in7.9 mm
01:30 PM 55.6°F13.1°C 51.2°F10.7°C 85% 21.9 mph WNW35.2 kmh WNW 28.8 mph46.3 kmh 29.57 in1001.4 mb - 0.00 in0.0 mm 0.31 in7.9 mm
02:00 PM 56.8°F13.8°C 51.0°F10.6°C 81% 25.3 mph NW40.7 kmh NW 32.2 mph51.8 kmh 29.56 in1001.0 mb - 0.00 in0.0 mm 0.31 in7.9 mm
02:30 PM 56.1°F13.4°C 51.3°F10.7°C 84% 26.5 mph WNW42.6 kmh WNW 38.0 mph61.2 kmh 29.56 in1001.0 mb - 0.00 in0.0 mm 0.31 in7.9 mm
03:00 PM 55.5°F13.1°C 52.3°F11.3°C 89% 23.0 mph NW37.0 kmh NW 27.6 mph44.4 kmh 29.55 in1000.7 mb - 0.02 in0.5 mm 0.32 in8.1 mm
03:30 PM 55.3°F12.9°C 53.0°F11.7°C 92% 15.0 mph WNW24.1 kmh WNW 17.3 mph27.8 kmh 29.55 in1000.7 mb - 0.03 in0.8 mm 0.35 in8.9 mm
04:00 PM 53.7°F12.1°C 51.7°F10.9°C 93% 18.4 mph W29.6 kmh W 23.0 mph37.0 kmh 29.56 in1001.0 mb - 0.08 in2.0 mm 0.43 in10.9 mm
04:30 PM 53.0°F11.7°C 51.3°F10.7°C 94% 11.5 mph W18.5 kmh W 13.8 mph22.2 kmh 29.54 in1000.3 mb - 0.02 in0.5 mm 0.45 in11.4 mm
05:00 PM 53.5°F11.9°C 51.8°F11.0°C 94% 12.7 mph WNW20.4 kmh WNW 15.0 mph24.1 kmh 29.54 in1000.3 mb - 0.00 in0.0 mm 0.45 in11.4 mm
05:30 PM 53.6°F12.0°C 51.9°F11.1°C 94% 13.8 mph WNW22.2 kmh WNW 16.1 mph25.9 kmh 29.53 in1000.0 mb - 0.00 in0.0 mm 0.45 in11.4 mm
06:00 PM 53.9°F12.2°C 52.2°F11.2°C 94% 11.5 mph WNW18.5 kmh WNW 12.7 mph20.4 kmh 29.53 in1000.0 mb - 0.00 in0.0 mm 0.45 in11.4 mm
06:30 PM 54.2°F12.3°C 52.5°F11.4°C 94% 9.2 mph WNW14.8 kmh WNW 11.5 mph18.5 kmh 29.52 in999.7 mb - 0.00 in0.0 mm 0.45 in11.4 mm
07:00 PM 54.5°F12.5°C 52.5°F11.4°C 93% 11.5 mph NW18.5 kmh NW 16.1 mph25.9 kmh 29.52 in999.7 mb - 0.03 in0.8 mm 0.48 in12.2 mm
07:30 PM 52.8°F11.6°C 50.5°F10.3°C 92% 17.3 mph WNW27.8 kmh WNW 19.6 mph31.5 kmh 29.53 in1000.0 mb - 0.14 in3.6 mm 0.61 in15.5 mm
08:00 PM 52.3°F11.3°C 50.1°F10.1°C 92% 18.4 mph W29.6 kmh W 23.0 mph37.0 kmh 29.51 in999.3 mb - 0.03 in0.8 mm 0.64 in16.3 mm
08:30 PM 52.2°F11.2°C 49.9°F9.9°C 92% 17.3 mph W27.8 kmh W 18.4 mph29.6 kmh 29.50 in999.0 mb - 0.00 in0.0 mm 0.64 in16.3 mm
09:00 PM 52.9°F11.6°C 50.7°F10.4°C 92% 19.6 mph W31.5 kmh W 21.9 mph35.2 kmh 29.52 in999.7 mb - 0.01 in0.3 mm 0.65 in16.5 mm
09:30 PM 53.3°F11.8°C 51.0°F10.6°C 92% 20.7 mph WSW33.3 kmh WSW 23.0 mph37.0 kmh 29.51 in999.3 mb - 0.02 in0.5 mm 0.67 in17.0 mm
10:00 PM 51.5°F10.8°C 49.5°F9.7°C 93% 8.1 mph WSW13.0 kmh WSW 9.2 mph14.8 kmh 29.51 in999.3 mb - 0.01 in0.3 mm 0.68 in17.3 mm
10:30 PM 51.7°F10.9°C 50.0°F10.0°C 94% 5.8 mph SW9.3 kmh SW 9.2 mph14.8 kmh 29.50 in999.0 mb - 0.00 in0.0 mm 0.68 in17.3 mm
11:00 PM 51.8°F11.0°C 50.1°F10.1°C 94% 3.5 mph N5.6 kmh N 3.5 mph5.6 kmh 29.50 in999.0 mb - 0.00 in0.0 mm 0.68 in17.3 mm
11:30 PM 51.4°F10.8°C 50.0°F10.0°C 95% 2.3 mph NNE3.7 kmh NNE 3.5 mph5.6 kmh 29.50 in999.0 mb - 0.12 in3.0 mm 0.79 in20.1 mm